Arthur, Iowa
Current Conditions -  °F | °C
As of 4:55 AM on Sunday 26 Oct 2014 (Local Time) from KSLB Reporting Station
Overcast Overcast  
Wind Chill: 43°   Ceiling: 6000
Heat Index: 48°   Visibility: 10mi
Dew Point: 32°   Wind: 14mph
Humidity: 54%   Direction: 110°ESE
Pressure: 29.97"   Gusts: NA
Location:  42.33°N, 95.35°W
Report Text: KSLB 260955Z AUTO 11012KT 10SM OVC060 09/00 A2997 RMK AO2
Loading
Personal Weather Stations






























Interactive Weather Map
Tropical Storm Tracking
New forecast layout! Learn more

10-Day Weather Forecast

Advertisements
Track Severe Weather on mobile